createdAt,value
2023-02-22T00:00:04.969Z,36.7
2023-02-22T00:06:14.480Z,41.4
2023-02-22T00:08:16.586Z,41.8
2023-02-22T00:12:20.765Z,47.5
2023-02-22T00:14:22.806Z,43.7
2023-02-22T00:16:28.240Z,46.9
2023-02-22T00:20:33.838Z,39.4
2023-02-22T00:22:35.914Z,44.4
2023-02-22T00:24:37.978Z,52.8
2023-02-22T00:26:40.073Z,50.6
2023-02-22T00:28:42.176Z,43.7
2023-02-22T00:30:47.482Z,40.8
2023-02-22T00:32:49.550Z,41.3
2023-02-22T00:34:51.650Z,48.1
2023-02-22T00:36:53.724Z,34.7
2023-02-22T00:38:55.837Z,41.2
2023-02-22T00:40:57.896Z,35.3
2023-02-22T00:45:05.282Z,37.3
2023-02-22T00:47:07.401Z,40.4
2023-02-22T00:49:09.473Z,45.9
2023-02-22T00:52:14.198Z,45.6
2023-02-22T00:54:16.280Z,56.3
2023-02-22T01:00:25.786Z,47.4
2023-02-22T01:02:27.854Z,55.6
2023-02-22T01:04:29.934Z,59.2
2023-02-22T01:06:32.011Z,47.3
2023-02-22T01:08:34.107Z,54.5
2023-02-22T01:10:36.186Z,67
2023-02-22T01:12:41.489Z,70.3
2023-02-22T01:14:43.541Z,75
2023-02-22T01:16:45.699Z,74.7
2023-02-22T01:18:47.736Z,82.1
2023-02-22T01:20:49.804Z,85.3
2023-02-22T01:22:51.902Z,75.6
2023-02-22T01:24:53.996Z,91.9
2023-02-22T01:26:59.288Z,87.8
2023-02-22T01:29:01.384Z,86.9
2023-02-22T01:31:03.592Z,89.2
2023-02-22T01:33:05.688Z,96.9
2023-02-22T01:35:07.622Z,98.5
2023-02-22T01:37:10.338Z,99.2
2023-02-22T01:39:12.429Z,106.4
2023-02-22T01:41:18.135Z,108.2
2023-02-22T01:43:19.824Z,100.1
2023-02-22T01:45:21.898Z,106
2023-02-22T01:54:00.211Z,126
2023-02-22T01:56:02.290Z,117.3
2023-02-22T01:58:04.360Z,123.3
2023-02-22T02:00:06.427Z,109.5
2023-02-22T02:02:08.506Z,124.2
2023-02-22T02:04:10.649Z,117.9
2023-02-22T02:06:12.657Z,114.6
2023-02-22T02:08:17.956Z,119.8
2023-02-22T02:10:20.033Z,128.4
2023-02-22T02:12:22.107Z,120.9
2023-02-22T02:14:24.238Z,104
2023-02-22T02:16:26.296Z,102.5
2023-02-22T02:18:28.333Z,119
2023-02-22T02:20:30.419Z,101.9
2023-02-22T02:22:35.738Z,102.3
2023-02-22T02:24:37.804Z,112.7
2023-02-22T02:26:39.882Z,95
2023-02-22T02:28:41.959Z,101.6
2023-02-22T02:30:44.036Z,110.3
2023-02-22T02:32:46.141Z,112.2
2023-02-22T02:34:48.152Z,79.3
2023-02-22T02:36:53.454Z,91.9
2023-02-22T02:38:55.606Z,85.4
2023-02-22T02:40:57.602Z,88.3
2023-02-22T02:44:02.321Z,87.2
2023-02-22T02:46:04.403Z,68.5
2023-02-22T02:48:06.456Z,79.5
2023-02-22T02:54:15.888Z,76.5
2023-02-22T02:56:17.955Z,76.8
2023-02-22T02:58:20.020Z,76.7
2023-02-22T03:00:22.098Z,64.1
2023-02-22T03:02:24.147Z,67.6
2023-02-22T03:04:29.449Z,62
2023-02-22T03:06:31.550Z,67.6
2023-02-22T03:08:33.599Z,75.4
2023-02-22T03:10:35.652Z,61.9
2023-02-22T03:12:37.726Z,59
2023-02-22T03:16:41.922Z,70.9
2023-02-22T03:18:47.140Z,61
2023-02-22T03:20:49.225Z,63.4
2023-02-22T03:22:51.241Z,62.4
2023-02-22T03:26:55.368Z,62
2023-02-22T03:35:06.837Z,64.7
2023-02-22T03:37:08.874Z,57.7
2023-02-22T03:38:11.537Z,53.3
2023-02-22T03:42:15.639Z,57.3
2023-02-22T03:44:17.705Z,51.7
2023-02-22T03:46:23.033Z,66.1
2023-02-22T03:48:25.053Z,57
2023-02-22T03:50:27.094Z,54.2
2023-02-22T03:52:29.127Z,57.2
2023-02-22T03:54:31.191Z,54.7
2023-02-22T03:56:34.470Z,59.3
2023-02-22T03:58:35.287Z,56.8
2023-02-22T04:04:45.518Z,61.2
2023-02-22T04:06:47.586Z,60.2
2023-02-22T04:08:49.635Z,58.3
2023-02-22T04:10:51.684Z,71.4
2023-02-22T04:12:53.746Z,64.7
2023-02-22T04:14:58.994Z,58.9
2023-02-22T04:17:01.065Z,69.3
2023-02-22T04:23:07.178Z,71.6
2023-02-22T04:29:16.547Z,77.5
2023-02-22T04:31:18.887Z,66.5
2023-02-22T04:34:23.282Z,85.6
2023-02-22T04:36:25.290Z,71.1
2023-02-22T04:38:27.332Z,72.9
2023-02-22T04:40:29.362Z,64.5
2023-02-22T04:44:36.685Z,91.8
2023-02-22T04:46:38.768Z,62.3
2023-02-22T04:48:40.775Z,75.1
2023-02-22T05:00:56.214Z,67.5
2023-02-22T05:02:58.315Z,69.5
2023-02-22T05:05:00.407Z,67.4
2023-02-22T05:07:02.305Z,79.5
2023-02-22T05:09:04.326Z,84.7
2023-02-22T05:11:09.607Z,90.9
2023-02-22T05:13:11.641Z,78.4
2023-02-22T05:15:13.676Z,71.1
2023-02-22T05:17:15.716Z,75
2023-02-22T05:19:17.735Z,76.7
2023-02-22T05:21:19.795Z,91.5
2023-02-22T05:23:21.815Z,93.3
2023-02-22T05:25:27.084Z,91.1
2023-02-22T05:27:29.102Z,88.9
2023-02-22T05:29:31.127Z,83.2
2023-02-22T05:32:00.068Z,85.3
2023-02-22T05:36:04.025Z,89.5
2023-02-22T05:44:15.358Z,84.4
2023-02-22T05:46:17.390Z,79
2023-02-22T05:52:26.691Z,98.8
2023-02-22T05:54:28.714Z,94.7
2023-02-22T05:56:30.746Z,89.6
2023-02-22T06:02:36.834Z,81.2
2023-02-22T06:04:38.862Z,103.7
2023-02-22T06:08:46.148Z,97.2
2023-02-22T06:14:55.320Z,98.7
2023-02-22T06:16:57.323Z,101.2
2023-02-22T06:18:59.348Z,110.1
2023-02-22T06:21:04.631Z,113
2023-02-22T06:23:06.641Z,120.8
2023-02-22T06:26:11.324Z,113.2
2023-02-22T06:28:13.342Z,125.9
2023-02-22T06:30:15.425Z,108
2023-02-22T06:32:17.533Z,128.7
2023-02-22T06:34:22.667Z,131.2
2023-02-22T06:36:24.702Z,138.3
2023-02-22T06:38:26.726Z,107.5
2023-02-22T06:40:28.778Z,121.3
2023-02-22T06:48:40.153Z,157.6
2023-02-22T06:54:46.240Z,136.5
2023-02-22T06:56:48.271Z,157.2
2023-02-22T06:58:50.289Z,154.8
2023-02-22T07:00:52.336Z,183.6
2023-02-22T07:02:57.605Z,205.6
2023-02-22T07:04:59.635Z,182.7
2023-02-22T07:07:01.634Z,185.1
2023-02-22T07:09:03.673Z,192.9
2023-02-22T07:11:05.691Z,202.2
2023-02-22T07:13:07.704Z,201.2
2023-02-22T07:15:09.755Z,207.6
2023-02-22T07:19:17.029Z,249.6
2023-02-22T07:21:19.209Z,219.4
2023-02-22T07:22:21.813Z,249.4
2023-02-22T07:24:23.708Z,268.6
2023-02-22T07:26:25.722Z,241.2
2023-02-22T07:28:27.744Z,220.7
2023-02-22T07:30:33.101Z,272.1
2023-02-22T07:32:35.178Z,271.7
2023-02-22T07:34:37.040Z,231.2
2023-02-22T07:36:39.073Z,266.5
2023-02-22T07:38:41.096Z,264.4
2023-02-22T07:40:43.225Z,272.5
2023-02-22T07:42:45.233Z,275.2
2023-02-22T07:48:54.544Z,262.1
2023-02-22T07:50:56.571Z,268.6
2023-02-22T07:52:58.596Z,263.4
2023-02-22T07:55:00.628Z,270.5
2023-02-22T07:57:02.628Z,257.4
2023-02-22T07:59:07.889Z,371.3
2023-02-22T08:01:09.919Z,373.6
2023-02-22T08:03:11.971Z,285.7
2023-02-22T08:09:18.028Z,308.5
2023-02-22T08:11:20.086Z,258.8
2023-02-22T08:15:27.831Z,205.7
2023-02-22T08:18:32.513Z,266.6
2023-02-22T08:20:34.507Z,261.2
2023-02-22T08:24:38.593Z,262.6
2023-02-22T08:26:43.804Z,229.1
2023-02-22T08:28:45.836Z,203.5
2023-02-22T08:30:47.954Z,227.9
2023-02-22T08:32:50.034Z,247.3
2023-02-22T08:34:51.913Z,219.3
2023-02-22T08:36:53.951Z,225.9
2023-02-22T08:38:56.008Z,172.1
2023-02-22T08:41:01.233Z,205.6
2023-02-22T08:43:03.272Z,204.7
2023-02-22T08:45:05.304Z,196.8
2023-02-22T08:49:09.360Z,183.9
2023-02-22T08:51:11.392Z,195.7
2023-02-22T08:53:13.446Z,199.4
2023-02-22T08:55:18.683Z,187
2023-02-22T08:57:21.732Z,185.6
2023-02-22T08:59:22.755Z,183.3
2023-02-22T09:01:32.683Z,162.5
2023-02-22T09:03:26.860Z,148.9
2023-02-22T09:05:31.225Z,171.8
2023-02-22T09:07:30.920Z,137.5
2023-02-22T09:09:36.208Z,150
2023-02-22T09:11:38.247Z,138.4
2023-02-22T09:13:40.291Z,137.4
2023-02-22T09:16:09.131Z,126.8
2023-02-22T09:18:11.198Z,142.2
2023-02-22T09:20:13.199Z,122.6
2023-02-22T09:24:20.533Z,141.6
2023-02-22T09:26:22.588Z,118.7
2023-02-22T09:32:28.912Z,115.2
2023-02-22T09:34:30.814Z,116.6
2023-02-22T09:36:36.098Z,112.5
2023-02-22T09:38:38.161Z,79.4
2023-02-22T09:40:40.208Z,106.6
2023-02-22T09:42:42.275Z,84.8
2023-02-22T09:44:44.324Z,83
2023-02-22T09:46:46.390Z,82.7
2023-02-22T09:48:48.428Z,89
2023-02-22T09:50:53.762Z,93.4
2023-02-22T09:52:55.821Z,83.5
2023-02-22T09:54:57.856Z,89.9
2023-02-22T09:56:59.924Z,91.9
2023-02-22T09:59:01.985Z,78
2023-02-22T10:01:04.071Z,82.5
2023-02-22T10:03:06.115Z,81.2
2023-02-22T10:05:11.478Z,93.7
2023-02-22T10:07:13.501Z,72.2
2023-02-22T10:09:15.616Z,72
2023-02-22T10:10:18.257Z,74.8
2023-02-22T10:12:20.317Z,65.7
2023-02-22T10:14:22.438Z,71.8
2023-02-22T10:16:24.512Z,75.7
2023-02-22T10:18:29.811Z,63.9
2023-02-22T10:20:31.889Z,63.6
2023-02-22T10:22:33.983Z,64.7
2023-02-22T10:24:36.056Z,73.6
2023-02-22T10:26:38.151Z,60.6
2023-02-22T10:28:40.246Z,68.3
2023-02-22T10:30:42.456Z,57.2
2023-02-22T10:32:47.679Z,60
2023-02-22T10:38:53.968Z,58.6
2023-02-22T10:40:56.086Z,74.3
2023-02-22T10:42:58.236Z,57.4
2023-02-22T10:45:00.291Z,68.9
2023-02-22T10:47:05.615Z,67.7
2023-02-22T10:49:07.709Z,51.9
2023-02-22T10:51:09.802Z,55
2023-02-22T10:53:11.922Z,65.4
2023-02-22T10:55:15.640Z,59.7
2023-02-22T10:59:18.259Z,49.4
2023-02-22T11:01:23.737Z,57.7
2023-02-22T11:05:27.860Z,72.9
2023-02-22T11:16:44.253Z,69
2023-02-22T11:18:46.310Z,81.6
2023-02-22T11:20:48.419Z,72.7
2023-02-22T11:22:50.433Z,78.7
2023-02-22T11:24:52.566Z,81
2023-02-22T11:26:54.694Z,63.1
2023-02-22T11:33:04.198Z,63
2023-02-22T11:43:17.975Z,65.3
2023-02-22T11:45:20.092Z,59.7
2023-02-22T11:51:26.512Z,78.5
2023-02-22T11:53:28.629Z,72.4
2023-02-22T11:59:38.268Z,79.3
2023-02-22T12:02:51.924Z,79.8
2023-02-22T12:06:48.654Z,79.9
2023-02-22T12:08:51.915Z,87
2023-02-22T12:10:56.024Z,86.3
2023-02-22T12:12:58.087Z,80.7
2023-02-22T12:15:00.241Z,94.6
2023-02-22T12:17:02.391Z,81.4
2023-02-22T12:19:04.508Z,84.1
2023-02-22T12:21:06.683Z,65.6
2023-02-22T12:23:08.733Z,83.1
2023-02-22T12:25:14.015Z,78
2023-02-22T12:29:18.293Z,69.1
2023-02-22T12:37:26.520Z,85.7
2023-02-22T12:45:37.997Z,67.3
2023-02-22T12:51:44.479Z,76.1
2023-02-22T12:53:49.762Z,71.1
2023-02-22T12:55:51.817Z,80.7
2023-02-22T12:57:53.864Z,72.5
2023-02-22T13:00:22.697Z,92.9
2023-02-22T13:02:24.754Z,90.2
2023-02-22T13:04:26.825Z,73.4
2023-02-22T13:06:32.133Z,69.7
2023-02-22T13:08:34.186Z,66.7
2023-02-22T13:12:38.296Z,64.4
2023-02-22T13:14:40.347Z,62
2023-02-22T13:16:42.423Z,79.1
2023-02-22T13:18:44.491Z,70
2023-02-22T13:20:49.701Z,56.3
2023-02-22T13:28:57.919Z,62
2023-02-22T13:35:07.350Z,63.5
2023-02-22T13:45:17.833Z,60.5
2023-02-22T13:47:20.025Z,51
2023-02-22T13:51:27.539Z,34.7
2023-02-22T13:53:29.618Z,33.9
2023-02-22T13:54:32.304Z,38.2
2023-02-22T13:56:34.454Z,34.5
2023-02-22T13:58:36.628Z,44.5
2023-02-22T14:00:38.759Z,38.1
2023-02-22T14:02:43.959Z,40.9
2023-02-22T14:06:48.075Z,38.8
2023-02-22T14:08:50.126Z,38.6
2023-02-22T14:10:52.306Z,42.1
2023-02-22T14:12:54.335Z,36.3
2023-02-22T14:14:56.500Z,40.9
2023-02-22T14:19:03.965Z,38.1
2023-02-22T14:23:08.282Z,41.9
2023-02-22T14:31:34.591Z,44.4
2023-02-22T14:33:22.051Z,44.3
2023-02-22T14:37:26.316Z,46.6
2023-02-22T14:39:28.399Z,38.6
2023-02-22T14:41:30.540Z,37.8
2023-02-22T14:45:38.073Z,43.8
2023-02-22T14:47:40.057Z,43.8
2023-02-22T14:52:47.083Z,57.6
2023-02-22T14:54:49.172Z,53.2
2023-02-22T14:56:51.354Z,44.9
2023-02-22T14:58:56.743Z,51.5
2023-02-22T15:00:58.930Z,46.1
2023-02-22T15:09:07.364Z,45.1
2023-02-22T15:15:17.048Z,39.1
2023-02-22T15:17:19.237Z,49
2023-02-22T15:19:21.344Z,55
2023-02-22T15:21:23.515Z,46.3
2023-02-22T15:23:25.623Z,46.2
2023-02-22T15:25:27.761Z,57.9
2023-02-22T15:27:33.065Z,46.9
2023-02-22T15:29:35.201Z,41.3
2023-02-22T15:31:37.283Z,47
2023-02-22T15:33:39.370Z,39.1
2023-02-22T15:41:51.076Z,50.6
2023-02-22T15:43:53.139Z,45.3
2023-02-22T15:45:55.412Z,46.7
2023-02-22T15:46:57.974Z,47.9
2023-02-22T15:49:00.143Z,43.2
2023-02-22T15:51:02.254Z,48.3
2023-02-22T15:55:09.671Z,48.2
2023-02-22T15:57:11.726Z,53.5
2023-02-22T15:59:13.874Z,53.2
2023-02-22T16:01:16.331Z,43.4
2023-02-22T16:03:18.160Z,40.2
2023-02-22T16:09:27.756Z,47.5
2023-02-22T16:11:30.121Z,50
2023-02-22T16:13:33.056Z,53.7
2023-02-22T16:15:34.087Z,48.7
2023-02-22T16:17:36.267Z,55.6
2023-02-22T16:19:40.677Z,53
2023-02-22T16:21:40.490Z,45.9
2023-02-22T16:23:45.878Z,60.1
2023-02-22T16:25:47.891Z,54.1
2023-02-22T16:27:49.929Z,55.5
2023-02-22T16:29:52.072Z,51.8
2023-02-22T16:31:54.341Z,54.7
2023-02-22T16:33:56.346Z,50.2
2023-02-22T16:35:58.466Z,62.4
2023-02-22T16:38:03.901Z,50.7
2023-02-22T16:42:08.115Z,43.3
2023-02-22T16:44:36.988Z,53.3
2023-02-22T16:46:39.176Z,49.5
2023-02-22T16:48:41.238Z,51.1
2023-02-22T16:50:46.620Z,55
2023-02-22T16:52:48.747Z,52.9
2023-02-22T16:58:55.133Z,42.9
2023-02-22T17:00:57.502Z,50.5
2023-02-22T17:02:59.412Z,38.8
2023-02-22T17:05:04.858Z,51.2
2023-02-22T17:07:06.908Z,46
2023-02-22T17:09:09.034Z,42.1
2023-02-22T17:11:11.155Z,45.6
2023-02-22T17:13:22.999Z,40.6
2023-02-22T17:15:15.384Z,39.5
2023-02-22T17:17:17.551Z,50.2
2023-02-22T17:19:22.971Z,39.9
2023-02-22T17:21:25.205Z,48.8
2023-02-22T17:23:27.144Z,42.6
2023-02-22T17:25:29.258Z,43.4
2023-02-22T17:27:31.403Z,38.3
2023-02-22T17:29:33.505Z,41.6
2023-02-22T17:31:35.888Z,52.6
2023-02-22T17:33:40.988Z,41
2023-02-22T17:35:43.106Z,45.5
2023-02-22T17:37:45.240Z,50.2
2023-02-22T17:38:47.929Z,43.9
2023-02-22T17:40:50.037Z,40.5
2023-02-22T17:44:54.278Z,34.2
2023-02-22T17:46:59.556Z,37.5
2023-02-22T17:49:01.799Z,52.2
2023-02-22T17:51:03.810Z,44.8
2023-02-22T17:53:05.973Z,39.6
2023-02-22T17:55:08.060Z,42.1
2023-02-22T17:57:10.178Z,40.7
2023-02-22T17:59:13.863Z,43.1
2023-02-22T18:01:20.619Z,46.5
2023-02-22T18:03:21.365Z,40.1
2023-02-22T18:05:23.439Z,43.4
2023-02-22T18:07:25.578Z,53
2023-02-22T18:09:27.746Z,44.8
2023-02-22T18:11:29.827Z,43.2
2023-02-22T18:13:31.955Z,43
2023-02-22T18:15:37.317Z,37.1
2023-02-22T18:17:39.438Z,43.9
2023-02-22T18:19:41.563Z,47
2023-02-22T18:21:43.694Z,51.6
2023-02-22T18:23:45.775Z,43.8
2023-02-22T18:25:57.098Z,44.8
2023-02-22T18:27:50.037Z,46.4
2023-02-22T18:29:55.401Z,46.5
2023-02-22T18:31:57.603Z,53.4
2023-02-22T18:33:59.626Z,46.9
2023-02-22T18:35:02.325Z,47.8
2023-02-22T18:37:04.407Z,40.3
2023-02-22T18:39:06.537Z,44.7
2023-02-22T18:41:08.655Z,45.2
2023-02-22T18:43:14.021Z,47.2
2023-02-22T18:47:18.241Z,51
2023-02-22T18:49:20.389Z,52.8
2023-02-22T19:03:38.497Z,61.2
2023-02-22T19:05:40.441Z,57.7
2023-02-22T19:11:50.000Z,63.9
2023-02-22T19:13:52.148Z,63.1
2023-02-22T19:15:54.311Z,64.3
2023-02-22T19:17:56.347Z,72.9
2023-02-22T19:19:58.476Z,62.1
2023-02-22T19:22:00.610Z,71
2023-02-22T19:24:02.707Z,70.8
2023-02-22T19:26:08.059Z,77.1
2023-02-22T19:28:10.150Z,74.4
2023-02-22T19:31:15.053Z,76.2
2023-02-22T19:33:17.048Z,70.9
2023-02-22T19:35:19.161Z,76
2023-02-22T19:37:21.251Z,75.2
2023-02-22T19:39:26.589Z,76.5
2023-02-22T19:41:28.689Z,90.5
2023-02-22T19:43:30.808Z,84
2023-02-22T19:45:33.044Z,84
2023-02-22T19:47:35.067Z,82.6
2023-02-22T19:49:37.199Z,80.1
2023-02-22T19:51:39.247Z,79.7
2023-02-22T19:53:44.581Z,80.2
2023-02-22T19:55:46.674Z,94.8
2023-02-22T19:57:48.806Z,81.6
2023-02-22T19:59:50.897Z,91.8
2023-02-22T20:01:52.991Z,89.4
2023-02-22T20:03:55.246Z,81.5
2023-02-22T20:05:57.217Z,95.9
2023-02-22T20:08:02.565Z,91.3
2023-02-22T20:12:06.765Z,92.7
2023-02-22T20:14:08.915Z,91.1
2023-02-22T20:16:11.039Z,103.6
2023-02-22T20:18:13.081Z,100.1
2023-02-22T20:20:15.212Z,101.1
2023-02-22T20:22:20.592Z,103.2
2023-02-22T20:24:22.660Z,98.9
2023-02-22T20:26:24.756Z,94.6
2023-02-22T20:32:58.046Z,109.2
2023-02-22T20:49:21.162Z,105
2023-02-22T20:51:23.287Z,104.7
2023-02-22T20:53:25.425Z,117.2
2023-02-22T20:55:27.560Z,99
2023-02-22T20:57:29.644Z,116.3
2023-02-22T20:59:31.765Z,121.8
2023-02-22T21:01:33.948Z,113.1
2023-02-22T21:03:39.239Z,133.4
2023-02-22T21:05:41.338Z,119.1
2023-02-22T21:07:43.440Z,118.6
2023-02-22T21:09:45.568Z,113.7
2023-02-22T21:11:47.665Z,130.2
2023-02-22T21:13:49.771Z,131.6
2023-02-22T21:17:57.241Z,135.2
2023-02-22T21:22:01.511Z,123.6
2023-02-22T21:23:04.128Z,134.9
2023-02-22T21:27:08.408Z,122.6
2023-02-22T21:29:10.495Z,131.1
2023-02-22T21:33:17.931Z,141.8
2023-02-22T21:35:20.012Z,145.1
2023-02-22T21:39:24.257Z,130.2
2023-02-22T21:43:28.488Z,131.9
2023-02-22T21:45:33.810Z,151.6
2023-02-22T21:47:35.908Z,121.8
2023-02-22T21:49:37.996Z,148.8
2023-02-22T21:51:40.118Z,140.6
2023-02-22T21:53:42.223Z,143.4
2023-02-22T21:55:44.291Z,126.2
2023-02-22T22:01:53.846Z,144.9
2023-02-22T22:03:55.943Z,143.9
2023-02-22T22:05:58.029Z,128.7
2023-02-22T22:08:00.144Z,133.4
2023-02-22T22:10:02.238Z,133.9
2023-02-22T22:12:04.314Z,135.7
2023-02-22T22:14:09.670Z,146.8
2023-02-22T22:16:11.866Z,147.7
2023-02-22T22:18:13.840Z,138
2023-02-22T22:29:30.292Z,134.9
2023-02-22T22:37:38.599Z,148.3
2023-02-22T22:39:40.694Z,139.5
2023-02-22T22:41:46.031Z,148.5
2023-02-22T22:43:48.133Z,139.9
2023-02-22T22:47:52.288Z,127.5
2023-02-22T22:51:56.460Z,153.7
2023-02-22T22:53:58.602Z,128.5
2023-02-22T22:56:03.927Z,156.5
2023-02-22T22:58:06.006Z,142.4
2023-02-22T23:00:08.125Z,161.6
2023-02-22T23:02:10.220Z,130
2023-02-22T23:04:12.334Z,131.1
2023-02-22T23:15:28.721Z,144.7
2023-02-22T23:21:34.996Z,137.1
2023-02-22T23:23:40.325Z,137.2
2023-02-22T23:29:47.125Z,128
2023-02-22T23:31:49.013Z,138.1
2023-02-22T23:33:50.853Z,126.7
2023-02-22T23:35:52.957Z,128.4
2023-02-22T23:37:58.268Z,131.7
2023-02-22T23:40:00.411Z,135
2023-02-22T23:42:02.483Z,120
2023-02-22T23:44:04.592Z,133.5
2023-02-22T23:46:06.676Z,136.8
2023-02-22T23:52:17.721Z,142.2
2023-02-22T23:54:19.833Z,138.6
2023-02-22T23:56:21.957Z,145.6
2023-02-22T23:58:24.023Z,141
